Portada
METAR-TAF:

METAR-TAF

Aeroports :

Ellsworth Air Force Base

Rapid City-Ellsworth, Dakota del Sud, Estats Units d'Amèrica

latitud: 44-09N, longitud: 103-06W, altitud: 999 m

Observació

L'informe es va fer fa 50 minuts, a les 16:56 UTC
Vent 8 kt del Nord-Oest
Temperatura 4°C
Humitat 65%
Pressió 1017 hPa
Visibilitat: 16.1 km
Cel clar

METAR: KRCA 281656Z AUTO 32008KT 10SM CLR 04/M02 A3003 RMK AO2 SLP197 T00401024 $

Hora: 10:46 (17:46 UTC)

Pronòstic

L'informe es va fer fa 6 hores i 46 minuts, a les 11:00 UTC
Pronòstic vàlid del 28 a les 11 UTC al 29 a les 17 UTC
Vent 6 kt amb direcció variable
Visibilitat 10 km o més
Escasses núvols a una alçada de 5000 ft

TAF: KRCA 281100Z 2811/2917 VRB06KT 9999 FEW050 QNH2999INS TX06/2820Z TN00/2813Z

Observacions i pronòstics meteorològics de més de 4000 aeroports (METAR i TAF).

Les estacions disponibles són els punts grocs i vermells al mapa.

Posi el ratolí al punt desitjat per veure el nom de l'estació.

Feu clic per veure les observacions i els pronòstics meteorològics.

Per canviar el mapa: feu clic els botons verds amb una creu de color negre per apropar; al botó verd amb un guió per allunyar la imatge; o en les fletxes verdes per a mapes adjacents.


METAR-TAF: